Time;durP1;ratioP1;P1;durP2;ratioP2;P2;SDS_P1;SDS_P2;PMS_P1;PMS_P2;Temp;Humidity;BMP_temperature;BMP_pressure;BME280_temperature;BME280_humidity;BME280_pressure;Samples;Min_cycle;Max_cycle;Signal;HPM_P1;HPM_P2
2023/12/08 00:01:14;;;;;;;1999.90;999.90;;;0.70;99.90;;;;;;5061662;28;20471;-75
2023/12/08 00:03:40;;;;;;;1999.90;999.90;;;0.60;99.90;;;;;;5060278;28;20954;-75
2023/12/08 00:06:09;;;;;;;1999.90;999.90;;;0.60;99.90;;;;;;5054729;28;20429;-74
2023/12/08 00:08:37;;;;;;;1999.90;999.90;;;0.60;99.90;;;;;;5056598;28;20425;-71
2023/12/08 00:11:04;;;;;;;1999.90;999.90;;;0.60;99.90;;;;;;5060322;28;20421;-74
2023/12/08 00:13:31;;;;;;;1999.90;999.90;;;0.60;99.90;;;;;;5061117;28;20447;-75
2023/12/08 00:16:08;;;;;;;1999.90;999.90;;;0.60;99.90;;;;;;5061126;28;20425;-73
2023/12/08 00:18:35;;;;;;;1999.90;999.90;;;0.60;99.90;;;;;;5054923;28;20895;-75
2023/12/08 00:21:02;;;;;;;1999.90;999.90;;;0.60;99.90;;;;;;5059375;28;20460;-75
2023/12/08 00:23:30;;;;;;;1999.90;999.90;;;1.10;99.90;;;;;;5061139;28;20818;-75
2023/12/08 00:25:57;;;;;;;1999.90;999.90;;;1.10;99.90;;;;;;5060155;28;20417;-75
2023/12/08 00:28:24;;;;;;;1999.90;999.90;;;0.50;99.90;;;;;;5058783;28;20425;-75
2023/12/08 00:30:51;;;;;;;1999.90;999.90;;;0.50;99.90;;;;;;5060276;28;20425;-76
2023/12/08 00:33:18;;;;;;;1999.90;999.90;;;0.80;99.90;;;;;;5059180;28;20444;-75
2023/12/08 00:35:44;;;;;;;1999.90;999.90;;;1.10;99.90;;;;;;5061866;28;20487;-76
2023/12/08 00:38:11;;;;;;;1999.90;999.90;;;0.50;99.90;;;;;;5053263;28;20437;-75
2023/12/08 00:40:39;;;;;;;1999.90;999.90;;;0.60;99.90;;;;;;5059655;28;20440;-75
2023/12/08 00:43:06;;;;;;;1999.90;999.90;;;1.10;99.90;;;;;;5058587;28;20504;-76
2023/12/08 00:45:33;;;;;;;1999.90;999.90;;;0.60;99.90;;;;;;5052472;28;20439;-79
2023/12/08 00:47:59;;;;;;;1999.90;999.90;;;0.60;99.90;;;;;;5058806;28;20413;-74
2023/12/08 00:50:26;;;;;;;1999.90;999.90;;;1.00;99.90;;;;;;5055216;28;20491;-74
2023/12/08 00:52:52;;;;;;;1999.90;999.90;;;0.90;99.90;;;;;;5052573;28;20433;-75
2023/12/08 00:55:19;;;;;;;1999.90;999.90;;;0.60;99.90;;;;;;5057844;28;20459;-75
2023/12/08 00:57:48;;;;;;;1999.90;999.90;;;0.90;99.90;;;;;;5058090;28;20522;-75
2023/12/08 01:00:17;;;;;;;1999.90;999.90;;;1.10;99.90;;;;;;5058350;28;20413;-75
2023/12/08 01:02:44;;;;;;;1999.90;999.90;;;0.70;99.90;;;;;;5051554;28;20423;-75
2023/12/08 01:05:11;;;;;;;1999.90;999.90;;;0.80;99.90;;;;;;5058031;28;20501;-74
2023/12/08 01:07:37;;;;;;;1999.90;999.90;;;0.60;99.90;;;;;;5057708;28;20406;-76
2023/12/08 01:10:05;;;;;;;1999.90;999.90;;;0.60;99.90;;;;;;5057602;28;20413;-74
2023/12/08 01:12:31;;;;;;;1999.90;999.90;;;0.70;99.90;;;;;;5057861;28;20413;-77
2023/12/08 01:14:59;;;;;;;1999.90;999.90;;;1.00;99.90;;;;;;5058428;28;20420;-75
2023/12/08 01:17:26;;;;;;;1999.90;999.90;;;0.80;99.90;;;;;;5057787;28;20826;-74
2023/12/08 01:19:53;;;;;;;1999.90;999.90;;;0.80;99.90;;;;;;5055520;28;20435;-75
2023/12/08 01:22:19;;;;;;;1999.90;999.90;;;0.90;99.90;;;;;;5057181;28;20836;-75
2023/12/08 01:24:46;;;;;;;1999.90;999.90;;;1.00;99.90;;;;;;5057524;28;20410;-75
2023/12/08 01:27:13;;;;;;;1999.90;999.90;;;0.90;99.90;;;;;;5057290;28;20409;-76
2023/12/08 01:29:39;;;;;;;1999.90;999.90;;;0.80;99.90;;;;;;5057477;28;20888;-75
2023/12/08 01:32:07;;;;;;;1999.90;999.90;;;0.70;99.90;;;;;;5056912;28;20417;-77
2023/12/08 01:34:34;;;;;;;1999.90;999.90;;;0.80;99.90;;;;;;5051194;28;20449;-75
2023/12/08 01:37:01;;;;;;;1999.90;999.90;;;0.70;99.90;;;;;;5057356;28;20433;-75
2023/12/08 01:39:27;;;;;;;1999.90;999.90;;;0.80;99.90;;;;;;5056072;28;20412;-75
2023/12/08 01:41:54;;;;;;;1999.90;999.90;;;0.70;99.90;;;;;;5058050;28;20463;-72
2023/12/08 01:44:20;;;;;;;1999.90;999.90;;;1.20;99.90;;;;;;5059344;28;20417;-75
2023/12/08 01:46:47;;;;;;;1999.90;999.90;;;0.70;99.90;;;;;;5059177;28;20414;-73
2023/12/08 01:49:16;;;;;;;1999.90;999.90;;;0.80;99.90;;;;;;5057555;28;20429;-75
2023/12/08 01:51:44;;;;;;;1999.90;999.90;;;1.10;99.90;;;;;;5057923;28;20413;-78
2023/12/08 01:54:13;;;;;;;1999.90;999.90;;;0.80;99.90;;;;;;5058412;28;20417;-75
2023/12/08 01:56:40;;;;;;;1999.90;999.90;;;1.20;99.90;;;;;;5057416;28;20429;-75
2023/12/08 01:59:08;;;;;;;1999.90;999.90;;;0.90;99.90;;;;;;5057445;28;20413;-76
2023/12/08 02:01:35;;;;;;;1999.90;999.90;;;0.90;99.90;;;;;;5053656;28;20405;-75
2023/12/08 02:04:02;;;;;;;1999.90;999.90;;;0.80;99.90;;;;;;5054030;28;20429;-75
2023/12/08 02:06:30;;;;;;;1999.90;999.90;;;1.10;99.90;;;;;;5057354;28;20417;-75
2023/12/08 02:08:58;;;;;;;1999.90;999.90;;;0.70;99.90;;;;;;5057117;28;20413;-75
2023/12/08 02:11:25;;;;;;;1999.90;999.90;;;0.70;99.90;;;;;;5057391;28;20432;-76
2023/12/08 02:13:53;;;;;;;1999.90;999.90;;;0.70;99.90;;;;;;5056696;28;20467;-75
2023/12/08 02:16:25;;;;;;;1999.90;999.90;;;1.20;99.90;;;;;;5056708;28;20480;-75
2023/12/08 02:18:52;;;;;;;1999.90;999.90;;;0.70;99.90;;;;;;5054630;28;20433;-76
2023/12/08 02:21:20;;;;;;;1999.90;999.90;;;1.10;99.90;;;;;;5057075;28;20409;-74
2023/12/08 02:23:49;;;;;;;1999.90;999.90;;;0.70;99.90;;;;;;5054212;28;20482;-72
2023/12/08 02:26:17;;;;;;;1999.90;999.90;;;0.70;99.90;;;;;;5057703;28;20487;-75
2023/12/08 02:28:43;;;;;;;1999.90;999.90;;;0.60;99.90;;;;;;5057141;28;20425;-75
2023/12/08 02:31:12;;;;;;;1999.90;999.90;;;1.10;99.90;;;;;;5057461;28;20834;-75
2023/12/08 02:33:44;;;;;;;1999.90;999.90;;;0.70;99.90;;;;;;5056234;28;20429;-76
2023/12/08 02:36:11;;;;;;;1999.90;999.90;;;1.10;99.90;;;;;;5052219;28;20436;-73
2023/12/08 02:38:39;;;;;;;1999.90;999.90;;;0.70;99.90;;;;;;5059715;28;20414;-74
2023/12/08 02:41:07;;;;;;;1999.90;999.90;;;0.70;99.90;;;;;;5059943;28;20435;-75
2023/12/08 02:43:34;;;;;;;1999.90;999.90;;;0.70;99.90;;;;;;5053499;28;20472;-76
2023/12/08 02:46:01;;;;;;;1999.90;999.90;;;0.70;99.90;;;;;;5058034;28;20431;-75
2023/12/08 02:48:27;;;;;;;1999.90;999.90;;;1.10;99.90;;;;;;5059038;28;20413;-76
2023/12/08 02:50:54;;;;;;;1999.90;999.90;;;1.10;99.90;;;;;;5058903;28;20569;-77
2023/12/08 02:53:21;;;;;;;1999.90;999.90;;;0.80;99.90;;;;;;5059685;28;20957;-75
2023/12/08 02:55:47;;;;;;;1999.90;999.90;;;0.80;99.90;;;;;;5061052;28;20413;-73
2023/12/08 02:58:15;;;;;;;1999.90;999.90;;;1.00;99.90;;;;;;5059239;28;20417;-75
2023/12/08 03:00:42;;;;;;;1999.90;999.90;;;0.80;99.90;;;;;;5058706;28;20433;-74
2023/12/08 03:03:08;;;;;;;1999.90;999.90;;;0.80;99.90;;;;;;5059725;28;20418;-76
2023/12/08 03:05:35;;;;;;;1999.90;999.90;;;1.00;99.90;;;;;;5059937;28;20957;-76
2023/12/08 03:08:02;;;;;;;1999.90;999.90;;;0.80;99.90;;;;;;5060323;28;20412;-75
2023/12/08 03:10:28;;;;;;;1999.90;999.90;;;1.10;99.90;;;;;;5059961;28;20451;-76
2023/12/08 03:12:55;;;;;;;1999.90;999.90;;;0.90;99.90;;;;;;5060769;28;20420;-75
2023/12/08 03:15:23;;;;;;;1999.90;999.90;;;1.40;99.90;;;;;;5056974;28;20433;-75
2023/12/08 03:17:50;;;;;;;1999.90;999.90;;;0.90;99.90;;;;;;5059066;28;20843;-75
2023/12/08 03:20:16;;;;;;;1999.90;999.90;;;0.90;99.90;;;;;;5058199;28;20830;-75
2023/12/08 03:22:43;;;;;;;1999.90;999.90;;;0.90;99.90;;;;;;5059864;28;20421;-75
2023/12/08 03:25:10;;;;;;;1999.90;999.90;;;0.90;99.90;;;;;;5059457;28;20413;-75
2023/12/08 03:27:36;;;;;;;1999.90;999.90;;;1.40;99.90;;;;;;5062143;28;20899;-76
2023/12/08 03:30:04;;;;;;;1999.90;999.90;;;1.60;99.90;;;;;;5061589;28;20462;-73
2023/12/08 03:32:32;;;;;;;1999.90;999.90;;;1.00;99.90;;;;;;5063025;28;20425;-75
2023/12/08 03:34:59;;;;;;;1999.90;999.90;;;1.00;99.90;;;;;;5063053;28;20413;-76
2023/12/08 03:37:26;;;;;;;1999.90;999.90;;;1.10;99.90;;;;;;5062398;28;20429;-75
2023/12/08 03:39:53;;;;;;;1999.90;999.90;;;1.10;99.90;;;;;;5061710;28;20409;-77
2023/12/08 03:42:20;;;;;;;1999.90;999.90;;;1.10;99.90;;;;;;5062057;28;20443;-76
2023/12/08 03:44:46;;;;;;;1999.90;999.90;;;1.50;99.90;;;;;;5059217;28;20433;-74
2023/12/08 03:47:13;;;;;;;1999.90;999.90;;;1.10;99.90;;;;;;5061709;28;20412;-75
2023/12/08 03:49:41;;;;;;;1999.90;999.90;;;1.20;99.90;;;;;;5062779;28;20407;-75
2023/12/08 03:52:08;;;;;;;1999.90;999.90;;;1.20;99.90;;;;;;5062687;28;20417;-75
2023/12/08 03:54:34;;;;;;;1999.90;999.90;;;1.20;99.90;;;;;;5060380;28;20487;-77
2023/12/08 03:57:01;;;;;;;1999.90;999.90;;;1.20;99.90;;;;;;5060751;28;20429;-75
2023/12/08 03:59:28;;;;;;;1999.90;999.90;;;1.30;99.90;;;;;;5058062;28;20429;-75
2023/12/08 04:01:54;;;;;;;1999.90;999.90;;;1.20;99.90;;;;;;5060510;28;20846;-75
2023/12/08 04:04:21;;;;;;;1999.90;999.90;;;1.50;99.90;;;;;;5059625;28;21000;-74
2023/12/08 04:06:49;;;;;;;1999.90;999.90;;;1.10;99.90;;;;;;5060996;28;20440;-75
2023/12/08 04:09:15;;;;;;;1999.90;999.90;;;1.20;99.90;;;;;;5060067;28;20467;-75
2023/12/08 04:11:42;;;;;;;1999.90;999.90;;;1.10;99.90;;;;;;5058784;28;20437;-75
2023/12/08 04:14:09;;;;;;;1999.90;999.90;;;1.10;99.90;;;;;;5056945;28;20811;-75
2023/12/08 04:16:35;;;;;;;1999.90;999.90;;;1.30;99.90;;;;;;5059623;28;20425;-75
2023/12/08 04:19:02;;;;;;;1999.90;999.90;;;1.00;99.90;;;;;;5059863;28;20463;-75
2023/12/08 04:21:29;;;;;;;1999.90;999.90;;;0.90;99.90;;;;;;5061435;28;20424;-74
2023/12/08 04:23:57;;;;;;;1999.90;999.90;;;0.90;99.90;;;;;;5061522;28;20409;-75
2023/12/08 04:26:24;;;;;;;1999.90;999.90;;;0.90;99.90;;;;;;5059194;28;20421;-75
2023/12/08 04:28:52;;;;;;;1999.90;999.90;;;1.00;99.90;;;;;;5059069;28;20454;-75
2023/12/08 04:31:19;;;;;;;1999.90;999.90;;;1.20;99.90;;;;;;5061120;28;20506;-75
2023/12/08 04:33:45;;;;;;;1999.90;999.90;;;1.30;99.90;;;;;;5061961;28;20421;-76
2023/12/08 04:36:12;;;;;;;1999.90;999.90;;;1.10;99.90;;;;;;5061306;28;20413;-75
2023/12/08 04:38:39;;;;;;;1999.90;999.90;;;1.00;99.90;;;;;;5059631;28;20474;-75
2023/12/08 04:41:07;;;;;;;1999.90;999.90;;;1.50;99.90;;;;;;5057657;28;20437;-75
2023/12/08 04:43:33;;;;;;;1999.90;999.90;;;1.00;99.90;;;;;;5060025;28;20421;-75
2023/12/08 04:46:00;;;;;;;1999.90;999.90;;;1.00;99.90;;;;;;5059945;28;20416;-75
2023/12/08 04:48:27;;;;;;;1999.90;999.90;;;1.10;99.90;;;;;;5058985;28;20830;-75
2023/12/08 04:50:55;;;;;;;1999.90;999.90;;;1.00;99.90;;;;;;5059132;28;20891;-75
2023/12/08 04:53:21;;;;;;;1999.90;999.90;;;1.10;99.90;;;;;;5059150;28;20914;-75
2023/12/08 04:55:48;;;;;;;1999.90;999.90;;;1.00;99.90;;;;;;5057311;28;20475;-75
2023/12/08 04:58:16;;;;;;;1999.90;999.90;;;1.10;99.90;;;;;;5060024;28;20433;-75
2023/12/08 05:00:43;;;;;;;1999.90;999.90;;;1.50;99.90;;;;;;5058751;28;20440;-75
2023/12/08 05:03:10;;;;;;;1999.90;999.90;;;1.60;99.90;;;;;;5060419;28;20424;-74
2023/12/08 05:05:38;;;;;;;1999.90;999.90;;;1.10;99.90;;;;;;5054539;28;20439;-75
2023/12/08 05:08:05;;;;;;;1999.90;999.90;;;1.20;99.90;;;;;;5059388;28;20413;-75
2023/12/08 05:10:31;;;;;;;1999.90;999.90;;;1.20;99.90;;;;;;5060121;28;20585;-74
2023/12/08 05:12:58;;;;;;;1999.90;999.90;;;1.20;99.90;;;;;;5060560;28;20441;-75
2023/12/08 05:15:26;;;;;;;1999.90;999.90;;;1.20;99.90;;;;;;5060277;28;20410;-76
2023/12/08 05:17:53;;;;;;;1999.90;999.90;;;1.30;99.90;;;;;;5059063;28;20425;-75
2023/12/08 05:20:19;;;;;;;1999.90;999.90;;;1.20;99.90;;;;;;5054982;28;20421;-75
2023/12/08 05:22:46;;;;;;;1999.90;999.90;;;1.30;99.90;;;;;;5059614;28;20448;-75
2023/12/08 05:25:13;;;;;;;1999.90;999.90;;;1.20;99.90;;;;;;5059804;28;20417;-75
2023/12/08 05:27:40;;;;;;;1999.90;999.90;;;1.30;99.90;;;;;;5058909;28;20400;-75
2023/12/08 05:30:08;;;;;;;1999.90;999.90;;;1.40;99.90;;;;;;5058977;28;20437;-75
2023/12/08 05:32:36;;;;;;;1999.90;999.90;;;1.30;99.90;;;;;;5055328;28;20405;-75
2023/12/08 05:35:03;;;;;;;1999.90;999.90;;;1.50;99.90;;;;;;5059228;28;20437;-75
2023/12/08 05:37:30;;;;;;;1999.90;999.90;;;1.30;99.90;;;;;;5059276;28;20464;-75
2023/12/08 05:39:56;;;;;;;1999.90;999.90;;;1.30;99.90;;;;;;5060601;28;20417;-77
2023/12/08 05:42:23;;;;;;;1999.90;999.90;;;1.30;99.90;;;;;;5060680;28;20489;-76
2023/12/08 05:44:50;;;;;;;1999.90;999.90;;;1.30;99.90;;;;;;5061750;28;20409;-76
2023/12/08 05:47:17;;;;;;;1999.90;999.90;;;1.40;99.90;;;;;;5059797;28;20492;-74
2023/12/08 05:49:45;;;;;;;1999.90;999.90;;;1.30;99.90;;;;;;5057338;28;20437;-75
2023/12/08 05:52:12;;;;;;;1999.90;999.90;;;1.30;99.90;;;;;;5061990;28;20417;-75
2023/12/08 05:54:38;;;;;;;1999.90;999.90;;;1.40;99.90;;;;;;5063373;28;20459;-75
2023/12/08 05:57:06;;;;;;;1999.90;999.90;;;1.40;99.90;;;;;;5061030;28;20483;-75
2023/12/08 05:59:32;;;;;;;1999.90;999.90;;;1.60;99.90;;;;;;5060032;28;20421;-75
2023/12/08 06:01:59;;;;;;;1999.90;999.90;;;1.60;99.90;;;;;;5059640;28;20424;-75
2023/12/08 06:04:26;;;;;;;1999.90;999.90;;;1.70;99.90;;;;;;5057160;28;20484;-76
2023/12/08 06:06:54;;;;;;;1999.90;999.90;;;1.80;99.90;;;;;;5059501;28;20956;-75
2023/12/08 06:09:20;;;;;;;1999.90;999.90;;;1.90;99.90;;;;;;5058691;28;20489;-75
2023/12/08 06:11:47;;;;;;;1999.90;999.90;;;1.90;99.90;;;;;;5059651;28;20417;-74
2023/12/08 06:14:14;;;;;;;1999.90;999.90;;;1.90;99.90;;;;;;5059542;28;20417;-75
2023/12/08 06:16:40;;;;;;;1999.90;999.90;;;1.90;99.90;;;;;;5055016;28;20431;-75
2023/12/08 06:19:08;;;;;;;1999.90;999.90;;;1.90;99.90;;;;;;5058155;28;20417;-75
2023/12/08 06:21:35;;;;;;;1999.90;999.90;;;1.90;99.90;;;;;;5054963;28;20481;-75
2023/12/08 06:24:03;;;;;;;1999.90;999.90;;;2.00;99.90;;;;;;5061394;28;20403;-74
2023/12/08 06:26:30;;;;;;;1999.90;999.90;;;1.90;99.90;;;;;;5058497;28;20421;-73
2023/12/08 06:28:57;;;;;;;1999.90;999.90;;;2.00;99.90;;;;;;5057072;28;20463;-73
2023/12/08 06:31:23;;;;;;;1999.90;999.90;;;1.90;99.90;;;;;;5054891;28;20446;-77
2023/12/08 06:33:50;;;;;;;1999.90;999.90;;;2.00;99.90;;;;;;5055897;28;20425;-74
2023/12/08 06:36:17;;;;;;;1999.90;999.90;;;1.90;99.90;;;;;;5057865;28;20409;-75
2023/12/08 06:38:43;;;;;;;1999.90;999.90;;;1.80;99.90;;;;;;5060180;28;21049;-75
2023/12/08 06:41:12;;;;;;;1999.90;999.90;;;1.80;99.90;;;;;;5059944;28;20413;-74
2023/12/08 06:43:38;;;;;;;1999.90;999.90;;;1.80;99.90;;;;;;5059224;28;20417;-74
2023/12/08 06:46:05;;;;;;;1999.90;999.90;;;1.80;99.90;;;;;;5056364;28;20981;-76
2023/12/08 06:48:32;;;;;;;1999.90;999.90;;;1.80;99.90;;;;;;5056934;28;20432;-76
2023/12/08 06:50:58;;;;;;;1999.90;999.90;;;1.90;99.90;;;;;;5057848;28;20850;-75
2023/12/08 06:53:25;;;;;;;1999.90;999.90;;;1.70;99.90;;;;;;5060670;28;20424;-75
2023/12/08 06:55:52;;;;;;;1999.90;999.90;;;1.60;99.90;;;;;;5061219;28;20428;-75
2023/12/08 06:58:20;;;;;;;1999.90;999.90;;;1.60;99.90;;;;;;5059508;28;20421;-73
2023/12/08 07:00:47;;;;;;;1999.90;999.90;;;1.60;99.90;;;;;;5059350;28;20466;-76
2023/12/08 07:03:14;;;;;;;1999.90;999.90;;;1.60;99.90;;;;;;5060620;28;20501;-74
2023/12/08 07:05:41;;;;;;;1999.90;999.90;;;1.70;99.90;;;;;;5056693;28;20490;-75
2023/12/08 07:08:07;;;;;;;1999.90;999.90;;;1.70;99.90;;;;;;5059678;28;20421;-76
2023/12/08 07:10:34;;;;;;;1999.90;999.90;;;1.70;99.90;;;;;;5063276;28;20413;-75
2023/12/08 07:13:01;;;;;;;1999.90;999.90;;;1.70;99.90;;;;;;5061441;28;20413;-76
2023/12/08 07:15:28;;;;;;;1999.90;999.90;;;1.80;99.90;;;;;;5056749;28;20500;-75
2023/12/08 07:17:58;;;;;;;1999.90;999.90;;;1.80;99.90;;;;;;5062650;28;20907;-74
2023/12/08 07:20:25;;;;;;;1999.90;999.90;;;1.70;99.90;;;;;;5061980;28;20420;-75
2023/12/08 07:22:52;;;;;;;1999.90;999.90;;;1.70;99.90;;;;;;5061192;28;20440;-75
2023/12/08 07:25:18;;;;;;;1999.90;999.90;;;1.80;99.90;;;;;;5059187;28;20427;-75
2023/12/08 07:27:45;;;;;;;1999.90;999.90;;;1.90;99.90;;;;;;5062212;28;20417;-75
2023/12/08 07:30:12;;;;;;;1999.90;999.90;;;1.90;99.90;;;;;;5057000;28;20436;-75
2023/12/08 07:32:40;;;;;;;1999.90;999.90;;;1.60;99.90;;;;;;5061822;28;20420;-75
2023/12/08 07:35:08;;;;;;;1999.90;999.90;;;2.10;99.90;;;;;;5060632;28;20899;-75
2023/12/08 07:37:34;;;;;;;1999.90;999.90;;;2.30;99.90;;;;;;5056945;28;20431;-75
2023/12/08 07:40:00;;;;;;;1999.90;999.90;;;2.40;99.90;;;;;;5058622;28;20531;-76
2023/12/08 07:42:27;;;;;;;1999.90;999.90;;;2.50;99.90;;;;;;5061222;28;20425;-76
2023/12/08 07:44:54;;;;;;;1999.90;999.90;;;2.70;99.90;;;;;;5059539;28;20471;-77
2023/12/08 07:47:20;;;;;;;1999.90;999.90;;;2.70;99.90;;;;;;5060251;28;20436;-75
2023/12/08 07:49:49;;;;;;;1999.90;999.90;;;2.80;99.90;;;;;;5059120;28;20793;-77
2023/12/08 07:52:16;;;;;;;1999.90;999.90;;;2.80;99.90;;;;;;5051631;28;20457;-77
2023/12/08 07:54:42;;;;;;;1999.90;999.90;;;2.70;99.90;;;;;;5047952;28;20440;-75
2023/12/08 07:57:09;;;;;;;1999.90;999.90;;;2.70;99.90;;;;;;5042291;28;20438;-76
2023/12/08 07:59:36;;;;;;;1999.90;999.90;;;2.70;99.90;;;;;;5049182;28;20413;-77
2023/12/08 08:02:03;;;;;;;1999.90;999.90;;;2.70;99.90;;;;;;5047297;28;20512;-71
2023/12/08 08:04:30;;;;;;;1999.90;999.90;;;3.00;99.90;;;;;;5051567;28;20918;-75
2023/12/08 08:06:58;;;;;;;1999.90;999.90;;;2.70;99.90;;;;;;5052346;28;20854;-76
2023/12/08 08:09:25;;;;;;;1999.90;999.90;;;2.70;99.90;;;;;;5054498;28;20405;-74
2023/12/08 08:11:52;;;;;;;1999.90;999.90;;;2.80;99.90;;;;;;5052107;28;20424;-76
2023/12/08 08:14:20;;;;;;;1999.90;999.90;;;2.90;99.90;;;;;;5054598;28;20504;-75
2023/12/08 08:16:47;;;;;;;1999.90;999.90;;;3.00;99.90;;;;;;5053590;28;20471;-74
2023/12/08 08:19:14;;;;;;;1999.90;999.90;;;3.10;99.90;;;;;;5056726;28;20433;-76
2023/12/08 08:21:41;;;;;;;1999.90;999.90;;;3.00;99.90;;;;;;5054026;28;20429;-75
2023/12/08 08:24:09;;;;;;;1999.90;999.90;;;2.80;99.90;;;;;;5056949;28;20429;-77
2023/12/08 08:26:36;;;;;;;1999.90;999.90;;;2.70;99.90;;;;;;5054580;28;20418;-75
2023/12/08 08:29:02;;;;;;;1999.90;999.90;;;2.60;99.90;;;;;;5054236;28;20425;-75
2023/12/08 08:31:29;;;;;;;1999.90;999.90;;;2.60;99.90;;;;;;5048810;28;20478;-74
2023/12/08 08:33:56;;;;;;;1999.90;999.90;;;2.60;99.90;;;;;;5055141;28;21055;-78
2023/12/08 08:36:25;;;;;;;1999.90;999.90;;;2.70;99.90;;;;;;5058189;28;20421;-75
2023/12/08 08:38:52;;;;;;;1999.90;999.90;;;2.80;99.90;;;;;;5056713;28;20498;-74
2023/12/08 08:41:21;;;;;;;1999.90;999.90;;;2.80;99.90;;;;;;5055650;28;20512;-75
2023/12/08 08:43:51;;;;;;;1999.90;999.90;;;2.80;99.90;;;;;;5056336;28;20421;-76
2023/12/08 08:46:18;;;;;;;1999.90;999.90;;;2.80;99.90;;;;;;5056457;28;20850;-76
2023/12/08 08:48:45;;;;;;;1999.90;999.90;;;2.70;99.90;;;;;;5054915;28;20433;-75
2023/12/08 08:51:11;;;;;;;1999.90;999.90;;;2.70;99.90;;;;;;5059553;28;20421;-72
2023/12/08 08:53:38;;;;;;;1999.90;999.90;;;2.60;99.90;;;;;;5050841;28;20418;-73
2023/12/08 08:56:05;;;;;;;1999.90;999.90;;;2.60;99.90;;;;;;5058635;28;20826;-76
2023/12/08 08:58:34;;;;;;;1999.90;999.90;;;2.50;99.90;;;;;;5058191;28;20931;-76
2023/12/08 09:01:01;;;;;;;1999.90;999.90;;;2.60;99.90;;;;;;5057753;28;20416;-76
2023/12/08 09:03:28;;;;;;;1999.90;999.90;;;2.60;99.90;;;;;;5057719;28;20445;-75
2023/12/08 09:05:54;;;;;;;1999.90;999.90;;;2.60;99.90;;;;;;5056677;28;20441;-74
2023/12/08 09:08:21;;;;;;;1999.90;999.90;;;2.50;99.90;;;;;;5059851;28;20410;-75
2023/12/08 09:10:50;;;;;;;1999.90;999.90;;;2.50;99.90;;;;;;5057803;28;20471;-74
2023/12/08 09:13:17;;;;;;;1999.90;999.90;;;2.50;99.90;;;;;;5055069;28;20417;-75
2023/12/08 09:15:45;;;;;;;1999.90;999.90;;;2.50;99.90;;;;;;5053826;28;20456;-76
2023/12/08 09:18:11;;;;;;;1999.90;999.90;;;2.60;99.90;;;;;;5046964;28;20830;-76
2023/12/08 09:20:39;;;;;;;1999.90;999.90;;;2.90;99.90;;;;;;5053791;28;20436;-77
2023/12/08 09:23:06;;;;;;;1999.90;999.90;;;3.00;99.90;;;;;;5054589;28;20443;-76
2023/12/08 09:25:32;;;;;;;1999.90;999.90;;;2.90;99.90;;;;;;5053226;28;20452;-74
2023/12/08 09:27:59;;;;;;;1999.90;999.90;;;2.90;99.90;;;;;;5053120;28;20436;-76
2023/12/08 09:30:27;;;;;;;1999.90;999.90;;;2.90;99.90;;;;;;5051525;28;20424;-75
2023/12/08 09:32:55;;;;;;;1999.90;999.90;;;3.00;99.90;;;;;;5045094;28;20439;-76
2023/12/08 09:35:22;;;;;;;1999.90;999.90;;;2.90;99.90;;;;;;5046566;28;20434;-76
2023/12/08 09:37:48;;;;;;;1999.90;999.90;;;2.90;99.90;;;;;;5053803;28;20413;-75
2023/12/08 09:40:16;;;;;;;1999.90;999.90;;;3.00;99.90;;;;;;5051150;28;21095;-75
2023/12/08 09:42:46;;;;;;;1999.90;999.90;;;3.00;99.90;;;;;;5053991;28;20421;-76
2023/12/08 09:45:13;;;;;;;1999.90;999.90;;;3.20;99.90;;;;;;5055779;28;20417;-77
2023/12/08 09:47:41;;;;;;;1999.90;999.90;;;3.30;99.90;;;;;;5053489;28;20440;-75
2023/12/08 09:50:12;;;;;;;1999.90;999.90;;;3.20;99.90;;;;;;5052597;28;20983;-77
2023/12/08 09:52:40;;;;;;;1999.90;999.90;;;3.10;99.90;;;;;;5045229;28;20428;-76
2023/12/08 09:55:07;;;;;;;1999.90;999.90;;;3.10;99.90;;;;;;5048299;28;20890;-76
2023/12/08 09:57:35;;;;;;;1999.90;999.90;;;3.10;99.90;;;;;;5048159;28;20444;-76
2023/12/08 10:00:05;;;;;;;1999.90;999.90;;;3.10;99.90;;;;;;5043394;28;20436;-75
2023/12/08 10:02:32;;;;;;;1999.90;999.90;;;3.10;99.90;;;;;;5040455;28;20425;-75
2023/12/08 10:04:59;;;;;;;1999.90;999.90;;;3.20;99.90;;;;;;5050272;28;20425;-72
2023/12/08 10:07:31;;;;;;;1999.90;999.90;;;3.20;99.90;;;;;;5045634;28;20425;-76
2023/12/08 10:09:58;;;;;;;1999.90;999.90;;;3.20;99.90;;;;;;5039526;28;20421;-77
2023/12/08 10:12:25;;;;;;;1999.90;999.90;;;3.40;99.90;;;;;;5043235;28;20528;-74
2023/12/08 10:14:52;;;;;;;1999.90;999.90;;;3.60;99.90;;;;;;5051203;28;20417;-77
2023/12/08 10:17:20;;;;;;;1999.90;999.90;;;3.70;99.90;;;;;;5045917;28;20976;-77
2023/12/08 10:19:46;;;;;;;1999.90;999.90;;;3.70;99.90;;;;;;5045720;28;20434;-76
2023/12/08 10:22:13;;;;;;;1999.90;999.90;;;3.70;99.90;;;;;;5039824;28;20442;-77
2023/12/08 10:24:42;;;;;;;1999.90;999.90;;;3.60;99.90;;;;;;5048242;28;20510;-77
2023/12/08 10:27:09;;;;;;;1999.90;999.90;;;3.70;99.90;;;;;;5041335;28;20436;-77
2023/12/08 10:29:36;;;;;;;1999.90;999.90;;;3.50;99.90;;;;;;5043721;28;20431;-77
2023/12/08 10:32:04;;;;;;;1999.90;999.90;;;3.70;99.90;;;;;;5041248;28;20473;-76
2023/12/08 10:34:32;;;;;;;1999.90;999.90;;;3.80;99.90;;;;;;5037715;28;20479;-75
2023/12/08 10:36:59;;;;;;;1999.90;999.90;;;3.90;99.90;;;;;;5044668;28;20942;-77
2023/12/08 10:39:26;;;;;;;1999.90;999.90;;;4.00;99.90;;;;;;5051270;28;20950;-75
2023/12/08 10:41:55;;;;;;;1999.90;999.90;;;3.70;99.90;;;;;;5050239;28;20433;-76
2023/12/08 10:44:22;;;;;;;1999.90;999.90;;;3.60;99.90;;;;;;5050078;28;20421;-76
2023/12/08 10:46:49;;;;;;;1999.90;999.90;;;3.70;99.90;;;;;;5052197;28;20914;-76
2023/12/08 10:49:18;;;;;;;1999.90;999.90;;;3.60;99.90;;;;;;5051755;28;20414;-76
2023/12/08 10:51:46;;;;;;;1999.90;999.90;;;3.50;99.90;;;;;;5052094;28;20497;-76
2023/12/08 10:54:16;;;;;;;1999.90;999.90;;;3.30;99.90;;;;;;5052026;28;20895;-76
2023/12/08 10:56:43;;;;;;;1999.90;999.90;;;3.30;99.90;;;;;;5049667;28;20437;-77
2023/12/08 10:59:12;;;;;;;1999.90;999.90;;;3.30;99.90;;;;;;5051782;28;20452;-76
2023/12/08 11:01:40;;;;;;;1999.90;999.90;;;3.20;99.90;;;;;;5051942;28;20492;-76
2023/12/08 11:04:11;;;;;;;1999.90;999.90;;;3.30;99.90;;;;;;5052432;28;20416;-76
2023/12/08 11:06:43;;;;;;;1999.90;999.90;;;3.20;99.90;;;;;;5047932;28;20951;-78
2023/12/08 11:09:12;;;;;;;1999.90;999.90;;;3.20;99.90;;;;;;5042753;28;20435;-77
2023/12/08 11:11:47;;;;;;;1999.90;999.90;;;3.20;99.90;;;;;;5045001;28;20413;-74
2023/12/08 11:14:27;;;;;;;1999.90;999.90;;;3.20;99.90;;;;;;5048341;28;20502;-73
2023/12/08 11:17:00;;;;;;;1999.90;999.90;;;3.20;99.90;;;;;;5042465;28;20515;-77
2023/12/08 11:19:27;;;;;;;1999.90;999.90;;;3.00;99.90;;;;;;5053796;28;20920;-76
2023/12/08 11:21:54;;;;;;;1999.90;999.90;;;3.00;99.90;;;;;;5052193;28;20826;-77
2023/12/08 11:24:21;;;;;;;1999.90;999.90;;;3.10;99.90;;;;;;5051005;28;20467;-76
2023/12/08 11:26:54;;;;;;;1999.90;999.90;;;3.00;99.90;;;;;;5050795;28;20761;-75
2023/12/08 11:29:32;;;;;;;1999.90;999.90;;;2.90;99.90;;;;;;5050471;28;20416;-75
2023/12/08 11:32:07;;;;;;;1999.90;999.90;;;2.90;99.90;;;;;;5040372;28;20438;-76
2023/12/08 11:34:38;;;;;;;1999.90;999.90;;;3.00;99.90;;;;;;5051551;28;20436;-78
2023/12/08 11:37:08;;;;;;;1999.90;999.90;;;2.90;99.90;;;;;;5052345;28;20912;-76
2023/12/08 11:39:41;;;;;;;1999.90;999.90;;;3.00;99.90;;;;;;5052389;28;20432;-77
2023/12/08 11:42:09;;;;;;;1999.90;999.90;;;2.90;99.90;;;;;;5052259;28;20421;-77
2023/12/08 11:44:38;;;;;;;1999.90;999.90;;;2.90;99.90;;;;;;5052844;28;20488;-76
2023/12/08 11:47:07;;;;;;;1999.90;999.90;;;2.80;99.90;;;;;;5051311;28;20926;-77
2023/12/08 11:49:36;;;;;;;1999.90;999.90;;;2.90;99.90;;;;;;5055812;28;20428;-75
2023/12/08 11:52:07;;;;;;;1999.90;999.90;;;2.80;99.90;;;;;;5056121;28;20417;-77
2023/12/08 11:55:07;;;;;;;1999.90;999.90;;;2.70;99.90;;;;;;5058418;28;20962;-76
2023/12/08 11:57:36;;;;;;;1999.90;999.90;;;2.70;99.90;;;;;;5055338;28;20471;-76
2023/12/08 12:00:09;;;;;;;1999.90;999.90;;;2.80;99.90;;;;;;5058262;28;20433;-78
2023/12/08 12:02:36;;;;;;;1999.90;999.90;;;2.90;99.90;;;;;;5053193;28;20432;-73
2023/12/08 12:05:03;;;;;;;1999.90;999.90;;;2.80;99.90;;;;;;5048029;28;20465;-77
2023/12/08 12:07:31;;;;;;;1999.90;999.90;;;2.70;99.90;;;;;;5056299;28;20440;-77
2023/12/08 12:09:58;;;;;;;1999.90;999.90;;;2.80;99.90;;;;;;5057522;28;20413;-75